sensor_id;sensor_type;location;lat;lon;timestamp;pressure;altitude;pressure_sealevel;temperature;humidity
5812;BME280;2932;52.400;9.558;2023-05-29T00:01:49;101587.91;;;19.63;60.41
5812;BME280;2932;52.400;9.558;2023-05-29T00:04:14;101588.16;;;19.18;61.28
5812;BME280;2932;52.400;9.558;2023-05-29T00:06:40;101593.81;;;19.25;61.28
5812;BME280;2932;52.400;9.558;2023-05-29T00:09:06;101595.72;;;18.87;61.85
5812;BME280;2932;52.400;9.558;2023-05-29T00:11:31;101590.59;;;19.23;61.11
5812;BME280;2932;52.400;9.558;2023-05-29T00:13:57;101593.19;;;19.05;60.91
5812;BME280;2932;52.400;9.558;2023-05-29T00:16:23;101595.63;;;19.40;60.20
5812;BME280;2932;52.400;9.558;2023-05-29T00:18:49;101600.91;;;19.12;60.02
5812;BME280;2932;52.400;9.558;2023-05-29T00:21:15;101598.38;;;19.03;60.27
5812;BME280;2932;52.400;9.558;2023-05-29T00:23:40;101604.78;;;19.04;60.02
5812;BME280;2932;52.400;9.558;2023-05-29T00:26:06;101608.56;;;19.15;59.64
5812;BME280;2932;52.400;9.558;2023-05-29T00:28:32;101612.28;;;18.96;60.61
5812;BME280;2932;52.400;9.558;2023-05-29T00:30:57;101608.44;;;19.08;60.42
5812;BME280;2932;52.400;9.558;2023-05-29T00:33:23;101612.00;;;19.05;60.27
5812;BME280;2932;52.400;9.558;2023-05-29T00:35:48;101604.56;;;18.89;60.51
5812;BME280;2932;52.400;9.558;2023-05-29T00:38:13;101605.88;;;18.95;60.07
5812;BME280;2932;52.400;9.558;2023-05-29T00:40:42;101610.41;;;19.04;60.07
5812;BME280;2932;52.400;9.558;2023-05-29T00:43:07;101616.97;;;18.88;60.44
5812;BME280;2932;52.400;9.558;2023-05-29T00:45:32;101621.78;;;18.88;60.41
5812;BME280;2932;52.400;9.558;2023-05-29T00:48:02;101621.22;;;18.75;60.53
5812;BME280;2932;52.400;9.558;2023-05-29T00:50:28;101627.88;;;18.44;60.60
5812;BME280;2932;52.400;9.558;2023-05-29T00:52:54;101627.41;;;18.61;60.89
5812;BME280;2932;52.400;9.558;2023-05-29T00:55:19;101634.63;;;18.62;60.48
5812;BME280;2932;52.400;9.558;2023-05-29T00:57:45;101627.94;;;18.48;60.02
5812;BME280;2932;52.400;9.558;2023-05-29T01:00:12;101628.91;;;18.32;60.25
5812;BME280;2932;52.400;9.558;2023-05-29T01:02:40;101631.06;;;18.43;59.67
5812;BME280;2932;52.400;9.558;2023-05-29T01:05:09;101632.31;;;18.45;59.78
5812;BME280;2932;52.400;9.558;2023-05-29T01:07:35;101631.44;;;18.64;59.14
5812;BME280;2932;52.400;9.558;2023-05-29T01:10:00;101631.66;;;19.05;58.81
5812;BME280;2932;52.400;9.558;2023-05-29T01:12:49;101631.06;;;19.22;58.18
5812;BME280;2932;52.400;9.558;2023-05-29T01:15:20;101634.94;;;19.10;57.85
5812;BME280;2932;52.400;9.558;2023-05-29T01:20:44;101637.25;;;19.05;57.92
5812;BME280;2932;52.400;9.558;2023-05-29T01:28:34;101641.53;;;18.69;57.99
5812;BME280;2932;52.400;9.558;2023-05-29T01:31:02;101644.06;;;18.77;57.92
5812;BME280;2932;52.400;9.558;2023-05-29T01:33:29;101646.75;;;18.70;58.21
5812;BME280;2932;52.400;9.558;2023-05-29T01:35:54;101648.91;;;18.80;57.47
5812;BME280;2932;52.400;9.558;2023-05-29T01:38:19;101650.13;;;18.79;57.84
5812;BME280;2932;52.400;9.558;2023-05-29T01:40:45;101647.50;;;18.67;57.93
5812;BME280;2932;52.400;9.558;2023-05-29T01:43:12;101659.53;;;18.68;57.53
5812;BME280;2932;52.400;9.558;2023-05-29T01:45:37;101656.97;;;18.59;57.62
5812;BME280;2932;52.400;9.558;2023-05-29T01:48:04;101657.53;;;18.68;57.39
5812;BME280;2932;52.400;9.558;2023-05-29T01:50:30;101659.47;;;18.64;57.47
5812;BME280;2932;52.400;9.558;2023-05-29T01:52:56;101668.59;;;18.84;56.61
5812;BME280;2932;52.400;9.558;2023-05-29T01:55:21;101664.44;;;18.74;56.83
5812;BME280;2932;52.400;9.558;2023-05-29T01:57:46;101664.78;;;18.69;56.78
5812;BME280;2932;52.400;9.558;2023-05-29T02:00:13;101665.53;;;18.66;56.83
5812;BME280;2932;52.400;9.558;2023-05-29T02:02:41;101658.75;;;18.48;56.89
5812;BME280;2932;52.400;9.558;2023-05-29T02:05:08;101667.31;;;18.32;57.53
5812;BME280;2932;52.400;9.558;2023-05-29T02:07:36;101663.22;;;18.26;57.85
5812;BME280;2932;52.400;9.558;2023-05-29T02:10:03;101671.53;;;18.45;57.39
5812;BME280;2932;52.400;9.558;2023-05-29T02:12:29;101666.25;;;18.40;57.13
5812;BME280;2932;52.400;9.558;2023-05-29T02:14:54;101674.03;;;18.27;57.39
5812;BME280;2932;52.400;9.558;2023-05-29T02:17:19;101671.13;;;18.01;57.74
5812;BME280;2932;52.400;9.558;2023-05-29T02:19:45;101674.56;;;17.91;58.18
5812;BME280;2932;52.400;9.558;2023-05-29T02:22:10;101679.72;;;17.70;58.08
5812;BME280;2932;52.400;9.558;2023-05-29T02:24:35;101668.69;;;17.77;58.22
5812;BME280;2932;52.400;9.558;2023-05-29T02:27:01;101678.81;;;17.46;58.16
5812;BME280;2932;52.400;9.558;2023-05-29T02:29:26;101671.16;;;17.62;58.57
5812;BME280;2932;52.400;9.558;2023-05-29T02:31:51;101675.72;;;17.51;58.28
5812;BME280;2932;52.400;9.558;2023-05-29T02:34:17;101676.94;;;17.70;58.18
5812;BME280;2932;52.400;9.558;2023-05-29T02:36:42;101669.47;;;17.39;58.68
5812;BME280;2932;52.400;9.558;2023-05-29T02:39:07;101680.13;;;17.33;58.86
5812;BME280;2932;52.400;9.558;2023-05-29T02:41:33;101677.16;;;17.26;59.19
5812;BME280;2932;52.400;9.558;2023-05-29T02:43:58;101673.78;;;17.36;58.96
5812;BME280;2932;52.400;9.558;2023-05-29T02:46:23;101674.97;;;17.35;58.71
5812;BME280;2932;52.400;9.558;2023-05-29T02:48:49;101680.53;;;17.51;58.94
5812;BME280;2932;52.400;9.558;2023-05-29T02:51:14;101677.81;;;17.54;58.81
5812;BME280;2932;52.400;9.558;2023-05-29T02:53:40;101670.88;;;17.48;58.63
5812;BME280;2932;52.400;9.558;2023-05-29T02:56:06;101677.06;;;17.57;58.65
5812;BME280;2932;52.400;9.558;2023-05-29T02:58:33;101679.88;;;17.22;59.48
5812;BME280;2932;52.400;9.558;2023-05-29T03:01:00;101679.50;;;17.59;58.98
5812;BME280;2932;52.400;9.558;2023-05-29T03:03:27;101673.47;;;17.76;58.55
5812;BME280;2932;52.400;9.558;2023-05-29T03:05:52;101674.69;;;17.40;59.01
5812;BME280;2932;52.400;9.558;2023-05-29T03:08:18;101675.91;;;17.23;59.13
5812;BME280;2932;52.400;9.558;2023-05-29T03:10:43;101669.13;;;17.05;59.53
5812;BME280;2932;52.400;9.558;2023-05-29T03:15:39;101683.81;;;17.18;59.33
5812;BME280;2932;52.400;9.558;2023-05-29T03:18:04;101686.66;;;17.21;59.54
5812;BME280;2932;52.400;9.558;2023-05-29T03:20:29;101678.41;;;17.28;59.31
5812;BME280;2932;52.400;9.558;2023-05-29T03:22:55;101684.16;;;17.16;59.53
5812;BME280;2932;52.400;9.558;2023-05-29T03:25:21;101686.44;;;17.30;59.42
5812;BME280;2932;52.400;9.558;2023-05-29T03:27:46;101692.47;;;17.13;59.77
5812;BME280;2932;52.400;9.558;2023-05-29T03:30:12;101703.03;;;17.39;59.60
5812;BME280;2932;52.400;9.558;2023-05-29T03:32:37;101698.09;;;17.32;59.48
5812;BME280;2932;52.400;9.558;2023-05-29T03:35:03;101700.06;;;17.31;59.49
5812;BME280;2932;52.400;9.558;2023-05-29T03:37:29;101703.22;;;17.11;59.34
5812;BME280;2932;52.400;9.558;2023-05-29T03:39:54;101705.13;;;17.26;59.42
5812;BME280;2932;52.400;9.558;2023-05-29T03:42:20;101707.47;;;17.24;59.63
5812;BME280;2932;52.400;9.558;2023-05-29T03:44:45;101697.72;;;16.98;59.42
5812;BME280;2932;52.400;9.558;2023-05-29T03:47:11;101699.44;;;17.03;59.67
5812;BME280;2932;52.400;9.558;2023-05-29T03:49:36;101708.50;;;16.65;59.96
5812;BME280;2932;52.400;9.558;2023-05-29T03:52:02;101702.38;;;16.75;60.45
5812;BME280;2932;52.400;9.558;2023-05-29T03:54:27;101702.13;;;16.99;60.39
5812;BME280;2932;52.400;9.558;2023-05-29T03:56:53;101705.75;;;16.84;60.34
5812;BME280;2932;52.400;9.558;2023-05-29T03:59:18;101702.41;;;16.63;61.14
5812;BME280;2932;52.400;9.558;2023-05-29T04:01:43;101706.38;;;16.46;60.93
5812;BME280;2932;52.400;9.558;2023-05-29T04:04:09;101697.44;;;16.25;62.13
5812;BME280;2932;52.400;9.558;2023-05-29T04:06:34;101695.22;;;16.30;61.94
5812;BME280;2932;52.400;9.558;2023-05-29T04:09:04;101706.47;;;16.81;60.75
5812;BME280;2932;52.400;9.558;2023-05-29T04:11:29;101702.25;;;17.22;60.35
5812;BME280;2932;52.400;9.558;2023-05-29T04:13:59;101708.06;;;17.14;59.95
5812;BME280;2932;52.400;9.558;2023-05-29T04:16:24;101711.91;;;17.25;60.13
5812;BME280;2932;52.400;9.558;2023-05-29T04:18:50;101713.59;;;17.29;59.61
5812;BME280;2932;52.400;9.558;2023-05-29T04:21:15;101724.59;;;17.73;59.00
5812;BME280;2932;52.400;9.558;2023-05-29T04:23:41;101738.53;;;17.89;58.62
5812;BME280;2932;52.400;9.558;2023-05-29T04:26:06;101732.56;;;17.90;58.79
5812;BME280;2932;52.400;9.558;2023-05-29T04:28:31;101720.91;;;17.88;58.45
5812;BME280;2932;52.400;9.558;2023-05-29T04:30:57;101732.88;;;18.08;58.31
5812;BME280;2932;52.400;9.558;2023-05-29T04:33:22;101729.78;;;18.13;58.22
5812;BME280;2932;52.400;9.558;2023-05-29T04:35:50;101731.72;;;18.09;58.16
5812;BME280;2932;52.400;9.558;2023-05-29T04:38:16;101730.81;;;18.05;58.17
5812;BME280;2932;52.400;9.558;2023-05-29T04:40:42;101723.69;;;18.08;57.90
5812;BME280;2932;52.400;9.558;2023-05-29T04:43:09;101729.94;;;18.01;57.75
5812;BME280;2932;52.400;9.558;2023-05-29T04:45:35;101732.63;;;17.94;58.71
5812;BME280;2932;52.400;9.558;2023-05-29T04:48:03;101722.34;;;18.02;58.02
5812;BME280;2932;52.400;9.558;2023-05-29T04:50:28;101719.53;;;17.63;58.75
5812;BME280;2932;52.400;9.558;2023-05-29T04:52:56;101725.69;;;17.69;59.18
5812;BME280;2932;52.400;9.558;2023-05-29T04:55:22;101730.84;;;17.66;58.99
5812;BME280;2932;52.400;9.558;2023-05-29T04:57:48;101727.75;;;17.72;59.32
5812;BME280;2932;52.400;9.558;2023-05-29T05:00:13;101732.00;;;17.65;58.95
5812;BME280;2932;52.400;9.558;2023-05-29T05:02:42;101734.25;;;17.95;58.63
5812;BME280;2932;52.400;9.558;2023-05-29T05:05:08;101730.97;;;18.12;58.19
5812;BME280;2932;52.400;9.558;2023-05-29T05:07:34;101736.25;;;18.37;57.65
5812;BME280;2932;52.400;9.558;2023-05-29T05:10:00;101727.63;;;18.26;57.75
5812;BME280;2932;52.400;9.558;2023-05-29T05:12:25;101724.19;;;18.13;58.33
5812;BME280;2932;52.400;9.558;2023-05-29T05:14:53;101726.28;;;17.97;58.25
5812;BME280;2932;52.400;9.558;2023-05-29T05:17:19;101726.75;;;17.64;58.58
5812;BME280;2932;52.400;9.558;2023-05-29T05:19:45;101735.94;;;17.80;58.88
5812;BME280;2932;52.400;9.558;2023-05-29T05:22:11;101735.88;;;17.96;58.41
5812;BME280;2932;52.400;9.558;2023-05-29T05:24:36;101728.63;;;17.76;58.41
5812;BME280;2932;52.400;9.558;2023-05-29T05:27:01;101736.53;;;17.89;58.88
5812;BME280;2932;52.400;9.558;2023-05-29T05:29:27;101733.38;;;17.91;58.69
5812;BME280;2932;52.400;9.558;2023-05-29T05:31:52;101743.22;;;17.85;58.84
5812;BME280;2932;52.400;9.558;2023-05-29T05:34:18;101743.13;;;18.00;59.14
5812;BME280;2932;52.400;9.558;2023-05-29T05:36:43;101747.94;;;18.00;58.95
5812;BME280;2932;52.400;9.558;2023-05-29T05:39:08;101754.13;;;18.09;59.06
5812;BME280;2932;52.400;9.558;2023-05-29T05:41:34;101757.47;;;17.95;58.86
5812;BME280;2932;52.400;9.558;2023-05-29T05:43:59;101758.19;;;17.73;59.47
5812;BME280;2932;52.400;9.558;2023-05-29T05:46:25;101761.38;;;17.91;58.93
5812;BME280;2932;52.400;9.558;2023-05-29T05:48:50;101765.09;;;17.79;58.64
5812;BME280;2932;52.400;9.558;2023-05-29T05:51:17;101752.06;;;17.87;58.54
5812;BME280;2932;52.400;9.558;2023-05-29T05:53:42;101754.28;;;17.97;58.05
5812;BME280;2932;52.400;9.558;2023-05-29T05:56:07;101753.09;;;18.17;57.81
5812;BME280;2932;52.400;9.558;2023-05-29T05:58:33;101749.16;;;18.22;57.53
5812;BME280;2932;52.400;9.558;2023-05-29T06:00:58;101753.31;;;18.51;56.09
5812;BME280;2932;52.400;9.558;2023-05-29T06:03:24;101751.63;;;18.46;56.07
5812;BME280;2932;52.400;9.558;2023-05-29T06:05:50;101745.56;;;18.44;56.70
5812;BME280;2932;52.400;9.558;2023-05-29T06:08:17;101751.13;;;18.41;56.73
5812;BME280;2932;52.400;9.558;2023-05-29T06:10:42;101760.31;;;18.60;56.55
5812;BME280;2932;52.400;9.558;2023-05-29T06:13:07;101763.94;;;18.61;56.35
5812;BME280;2932;52.400;9.558;2023-05-29T06:15:33;101769.91;;;18.82;56.07
5812;BME280;2932;52.400;9.558;2023-05-29T06:18:00;101771.88;;;18.59;56.12
5812;BME280;2932;52.400;9.558;2023-05-29T06:20:25;101774.53;;;18.94;55.44
5812;BME280;2932;52.400;9.558;2023-05-29T06:22:51;101772.91;;;19.19;55.05
5812;BME280;2932;52.400;9.558;2023-05-29T06:25:16;101779.31;;;19.43;55.03
5812;BME280;2932;52.400;9.558;2023-05-29T06:27:45;101773.09;;;19.30;54.75
5812;BME280;2932;52.400;9.558;2023-05-29T06:30:12;101772.94;;;19.46;54.32
5812;BME280;2932;52.400;9.558;2023-05-29T06:32:38;101777.94;;;19.33;54.49
5812;BME280;2932;52.400;9.558;2023-05-29T06:35:03;101778.38;;;19.09;54.50
5812;BME280;2932;52.400;9.558;2023-05-29T06:37:29;101783.06;;;19.27;54.50
5812;BME280;2932;52.400;9.558;2023-05-29T06:39:54;101781.25;;;19.12;54.40
5812;BME280;2932;52.400;9.558;2023-05-29T06:42:19;101789.00;;;19.22;54.07
5812;BME280;2932;52.400;9.558;2023-05-29T06:44:45;101785.38;;;19.22;53.77
5812;BME280;2932;52.400;9.558;2023-05-29T06:47:10;101786.69;;;19.28;53.77
5812;BME280;2932;52.400;9.558;2023-05-29T06:49:38;101789.72;;;19.42;53.37
5812;BME280;2932;52.400;9.558;2023-05-29T06:52:03;101792.91;;;19.41;53.05
5812;BME280;2932;52.400;9.558;2023-05-29T06:54:29;101794.25;;;19.24;53.33
5812;BME280;2932;52.400;9.558;2023-05-29T06:56:54;101795.72;;;19.14;53.08
5812;BME280;2932;52.400;9.558;2023-05-29T06:59:20;101800.03;;;19.35;52.84
5812;BME280;2932;52.400;9.558;2023-05-29T07:01:45;101797.59;;;19.33;52.72
5812;BME280;2932;52.400;9.558;2023-05-29T07:04:11;101798.84;;;19.36;53.16
5812;BME280;2932;52.400;9.558;2023-05-29T07:06:36;101805.56;;;19.54;52.54
5812;BME280;2932;52.400;9.558;2023-05-29T07:09:02;101807.94;;;19.52;52.68
5812;BME280;2932;52.400;9.558;2023-05-29T07:11:27;101806.91;;;19.63;52.79
5812;BME280;2932;52.400;9.558;2023-05-29T07:13:53;101806.06;;;19.10;53.67
5812;BME280;2932;52.400;9.558;2023-05-29T07:16:19;101803.16;;;19.29;53.76
5812;BME280;2932;52.400;9.558;2023-05-29T07:18:44;101800.63;;;19.47;52.79
5812;BME280;2932;52.400;9.558;2023-05-29T07:21:10;101805.56;;;19.54;52.84
5812;BME280;2932;52.400;9.558;2023-05-29T07:23:35;101801.41;;;19.21;53.37
5812;BME280;2932;52.400;9.558;2023-05-29T07:26:01;101805.72;;;19.64;52.70
5812;BME280;2932;52.400;9.558;2023-05-29T07:28:26;101812.81;;;19.85;52.12
5812;BME280;2932;52.400;9.558;2023-05-29T07:30:54;101800.41;;;19.33;52.62
5812;BME280;2932;52.400;9.558;2023-05-29T07:33:20;101808.13;;;19.40;53.11
5812;BME280;2932;52.400;9.558;2023-05-29T07:35:46;101804.84;;;19.60;52.43
5812;BME280;2932;52.400;9.558;2023-05-29T07:38:11;101800.13;;;19.94;52.27
5812;BME280;2932;52.400;9.558;2023-05-29T07:40:36;101803.75;;;19.95;52.28
5812;BME280;2932;52.400;9.558;2023-05-29T07:43:01;101806.72;;;20.09;52.05
5812;BME280;2932;52.400;9.558;2023-05-29T07:45:27;101811.53;;;20.09;51.69
5812;BME280;2932;52.400;9.558;2023-05-29T07:47:52;101821.19;;;20.11;51.07
5812;BME280;2932;52.400;9.558;2023-05-29T07:50:18;101823.03;;;20.30;50.74
5812;BME280;2932;52.400;9.558;2023-05-29T07:52:43;101825.88;;;20.67;50.04
5812;BME280;2932;52.400;9.558;2023-05-29T07:55:09;101823.63;;;20.83;50.08
5812;BME280;2932;52.400;9.558;2023-05-29T07:57:34;101831.78;;;20.95;50.04
5812;BME280;2932;52.400;9.558;2023-05-29T08:00:00;101827.13;;;21.14;49.50
5812;BME280;2932;52.400;9.558;2023-05-29T08:02:33;101819.13;;;21.16;50.24
5812;BME280;2932;52.400;9.558;2023-05-29T08:04:59;101823.53;;;21.20;49.63
5812;BME280;2932;52.400;9.558;2023-05-29T08:07:24;101813.72;;;20.96;49.33
5812;BME280;2932;52.400;9.558;2023-05-29T08:09:53;101814.25;;;21.13;50.02
5812;BME280;2932;52.400;9.558;2023-05-29T08:12:19;101812.53;;;21.01;49.82
5812;BME280;2932;52.400;9.558;2023-05-29T08:14:45;101809.75;;;21.05;50.29
5812;BME280;2932;52.400;9.558;2023-05-29T08:17:10;101813.69;;;21.41;49.16
5812;BME280;2932;52.400;9.558;2023-05-29T08:19:36;101813.00;;;21.58;49.13
5812;BME280;2932;52.400;9.558;2023-05-29T08:22:01;101810.66;;;21.71;48.79
5812;BME280;2932;52.400;9.558;2023-05-29T08:24:27;101803.22;;;21.41;48.53
5812;BME280;2932;52.400;9.558;2023-05-29T08:26:53;101813.09;;;21.76;48.70
5812;BME280;2932;52.400;9.558;2023-05-29T08:29:18;101808.28;;;21.76;48.72
5812;BME280;2932;52.400;9.558;2023-05-29T08:31:43;101809.78;;;21.59;47.58
5812;BME280;2932;52.400;9.558;2023-05-29T08:34:09;101810.94;;;21.48;47.40
5812;BME280;2932;52.400;9.558;2023-05-29T08:36:35;101804.81;;;21.39;46.91
5812;BME280;2932;52.400;9.558;2023-05-29T08:39:00;101807.78;;;21.56;47.07
5812;BME280;2932;52.400;9.558;2023-05-29T08:44:23;101810.44;;;22.04;46.83
5812;BME280;2932;52.400;9.558;2023-05-29T08:46:55;101812.59;;;22.36;46.69
5812;BME280;2932;52.400;9.558;2023-05-29T08:49:23;101813.03;;;22.52;47.07
5812;BME280;2932;52.400;9.558;2023-05-29T08:51:57;101821.19;;;22.78;46.75
5812;BME280;2932;52.400;9.558;2023-05-29T08:54:22;101819.56;;;22.91;46.06
5812;BME280;2932;52.400;9.558;2023-05-29T08:56:48;101823.22;;;23.20;46.32
5812;BME280;2932;52.400;9.558;2023-05-29T08:59:14;101824.03;;;23.32;45.90
5812;BME280;2932;52.400;9.558;2023-05-29T09:01:40;101818.41;;;23.17;45.42
5812;BME280;2932;52.400;9.558;2023-05-29T09:04:05;101823.63;;;23.54;44.88
5812;BME280;2932;52.400;9.558;2023-05-29T09:06:30;101839.78;;;23.08;44.97
5812;BME280;2932;52.400;9.558;2023-05-29T09:08:56;101839.75;;;23.01;45.27
5812;BME280;2932;52.400;9.558;2023-05-29T09:11:22;101822.44;;;23.13;44.94
5812;BME280;2932;52.400;9.558;2023-05-29T09:13:48;101820.38;;;23.35;45.28
5812;BME280;2932;52.400;9.558;2023-05-29T09:16:16;101819.97;;;23.40;44.60
5812;BME280;2932;52.400;9.558;2023-05-29T09:18:42;101815.94;;;23.51;44.17
5812;BME280;2932;52.400;9.558;2023-05-29T09:21:25;101820.00;;;23.57;44.18
5812;BME280;2932;52.400;9.558;2023-05-29T09:23:56;101820.38;;;23.49;44.37
5812;BME280;2932;52.400;9.558;2023-05-29T09:26:27;101816.34;;;23.43;43.56
5812;BME280;2932;52.400;9.558;2023-05-29T09:28:53;101815.09;;;23.83;43.66
5812;BME280;2932;52.400;9.558;2023-05-29T09:31:18;101804.66;;;23.58;43.28
5812;BME280;2932;52.400;9.558;2023-05-29T09:33:47;101814.34;;;23.57;44.00
5812;BME280;2932;52.400;9.558;2023-05-29T09:36:23;101815.47;;;23.88;43.64
5812;BME280;2932;52.400;9.558;2023-05-29T09:38:49;101818.16;;;24.27;43.60
5812;BME280;2932;52.400;9.558;2023-05-29T09:41:22;101820.66;;;24.04;43.38
5812;BME280;2932;52.400;9.558;2023-05-29T09:43:52;101804.50;;;24.05;43.99
5812;BME280;2932;52.400;9.558;2023-05-29T09:46:19;101802.84;;;24.14;43.87
5812;BME280;2932;52.400;9.558;2023-05-29T09:48:45;101817.28;;;24.41;43.60
5812;BME280;2932;52.400;9.558;2023-05-29T09:51:28;101807.56;;;24.42;42.90
5812;BME280;2932;52.400;9.558;2023-05-29T09:53:55;101805.75;;;24.77;42.23
5812;BME280;2932;52.400;9.558;2023-05-29T09:56:23;101797.28;;;23.93;43.20
5812;BME280;2932;52.400;9.558;2023-05-29T09:58:49;101797.34;;;23.65;44.24
5812;BME280;2932;52.400;9.558;2023-05-29T10:01:16;101805.81;;;23.72;44.38
5812;BME280;2932;52.400;9.558;2023-05-29T10:03:42;101807.00;;;23.85;44.10
5812;BME280;2932;52.400;9.558;2023-05-29T10:06:10;101798.00;;;24.11;44.02
5812;BME280;2932;52.400;9.558;2023-05-29T10:08:37;101792.16;;;24.54;43.29
5812;BME280;2932;52.400;9.558;2023-05-29T10:11:04;101796.91;;;24.71;42.39
5812;BME280;2932;52.400;9.558;2023-05-29T10:13:36;101803.78;;;24.67;42.61
5812;BME280;2932;52.400;9.558;2023-05-29T10:16:03;101807.19;;;25.03;42.42
5812;BME280;2932;52.400;9.558;2023-05-29T10:18:38;101799.81;;;25.16;41.65
5812;BME280;2932;52.400;9.558;2023-05-29T10:21:07;101789.31;;;25.54;40.82
5812;BME280;2932;52.400;9.558;2023-05-29T10:23:37;101795.28;;;25.63;41.44
5812;BME280;2932;52.400;9.558;2023-05-29T10:26:09;101799.25;;;25.73;41.44
5812;BME280;2932;52.400;9.558;2023-05-29T10:28:39;101795.50;;;25.83;41.04
5812;BME280;2932;52.400;9.558;2023-05-29T10:31:14;101788.31;;;26.05;41.08
5812;BME280;2932;52.400;9.558;2023-05-29T10:34:23;101791.47;;;26.45;40.67
5812;BME280;2932;52.400;9.558;2023-05-29T10:36:51;101784.38;;;25.99;41.46
5812;BME280;2932;52.400;9.558;2023-05-29T10:39:21;101778.84;;;25.47;41.46
5812;BME280;2932;52.400;9.558;2023-05-29T10:41:47;101787.41;;;25.81;41.83
5812;BME280;2932;52.400;9.558;2023-05-29T10:49:23;101776.38;;;25.53;40.79
5812;BME280;2932;52.400;9.558;2023-05-29T10:51:49;101784.03;;;25.94;41.37
5812;BME280;2932;52.400;9.558;2023-05-29T10:54:15;101774.09;;;26.09;40.61
5812;BME280;2932;52.400;9.558;2023-05-29T10:56:44;101776.03;;;26.15;40.59
5812;BME280;2932;52.400;9.558;2023-05-29T10:59:10;101771.75;;;26.61;40.49
5812;BME280;2932;52.400;9.558;2023-05-29T11:01:38;101768.56;;;27.09;40.51
5812;BME280;2932;52.400;9.558;2023-05-29T11:06:52;101770.53;;;27.12;40.69
5812;BME280;2932;52.400;9.558;2023-05-29T11:12:24;101764.66;;;27.23;40.75
5812;BME280;2932;52.400;9.558;2023-05-29T11:17:45;101758.41;;;27.32;39.51
5812;BME280;2932;52.400;9.558;2023-05-29T11:20:28;101757.16;;;27.56;39.41
5812;BME280;2932;52.400;9.558;2023-05-29T11:25:20;101756.06;;;28.29;39.06
5812;BME280;2932;52.400;9.558;2023-05-29T11:27:46;101760.09;;;27.92;38.98
5812;BME280;2932;52.400;9.558;2023-05-29T11:30:11;101750.28;;;28.13;38.83
5812;BME280;2932;52.400;9.558;2023-05-29T11:32:38;101742.09;;;28.15;39.32
5812;BME280;2932;52.400;9.558;2023-05-29T11:35:07;101739.78;;;28.46;39.01
5812;BME280;2932;52.400;9.558;2023-05-29T11:37:37;101742.81;;;28.55;38.97
5812;BME280;2932;52.400;9.558;2023-05-29T11:40:04;101739.44;;;28.60;38.23
5812;BME280;2932;52.400;9.558;2023-05-29T11:42:41;101751.38;;;28.55;38.42
5812;BME280;2932;52.400;9.558;2023-05-29T11:45:16;101756.22;;;28.22;38.45
5812;BME280;2932;52.400;9.558;2023-05-29T11:50:19;101756.59;;;28.40;38.32
5812;BME280;2932;52.400;9.558;2023-05-29T11:52:46;101757.59;;;28.50;37.98
5812;BME280;2932;52.400;9.558;2023-05-29T11:55:11;101747.34;;;28.36;38.10
5812;BME280;2932;52.400;9.558;2023-05-29T11:57:37;101743.25;;;28.17;38.34
5812;BME280;2932;52.400;9.558;2023-05-29T12:00:02;101741.59;;;28.00;37.88
5812;BME280;2932;52.400;9.558;2023-05-29T12:02:35;101750.34;;;28.29;38.47
5812;BME280;2932;52.400;9.558;2023-05-29T12:05:02;101735.16;;;28.16;37.85
5812;BME280;2932;52.400;9.558;2023-05-29T12:07:28;101733.47;;;28.54;38.31
5812;BME280;2932;52.400;9.558;2023-05-29T12:09:53;101726.44;;;28.59;37.95
5812;BME280;2932;52.400;9.558;2023-05-29T12:12:23;101727.34;;;28.88;37.76
5812;BME280;2932;52.400;9.558;2023-05-29T12:14:52;101725.91;;;29.13;37.22
5812;BME280;2932;52.400;9.558;2023-05-29T12:17:18;101732.34;;;29.01;37.26
5812;BME280;2932;52.400;9.558;2023-05-29T12:19:44;101729.84;;;28.86;37.20
5812;BME280;2932;52.400;9.558;2023-05-29T12:22:09;101731.97;;;29.15;37.26
5812;BME280;2932;52.400;9.558;2023-05-29T12:24:35;101732.63;;;28.90;36.48
5812;BME280;2932;52.400;9.558;2023-05-29T12:27:03;101722.72;;;28.95;37.56
5812;BME280;2932;52.400;9.558;2023-05-29T12:29:33;101730.31;;;29.30;36.86
5812;BME280;2932;52.400;9.558;2023-05-29T12:31:58;101739.06;;;29.23;36.37
5812;BME280;2932;52.400;9.558;2023-05-29T12:34:24;101730.56;;;28.91;35.89
5812;BME280;2932;52.400;9.558;2023-05-29T12:36:49;101723.47;;;29.28;36.68
5812;BME280;2932;52.400;9.558;2023-05-29T12:39:15;101729.34;;;29.20;36.44
5812;BME280;2932;52.400;9.558;2023-05-29T12:41:40;101730.34;;;29.59;36.68
5812;BME280;2932;52.400;9.558;2023-05-29T12:44:06;101734.13;;;29.98;35.78
5812;BME280;2932;52.400;9.558;2023-05-29T12:49:12;101741.69;;;29.17;35.46
5812;BME280;2932;52.400;9.558;2023-05-29T12:51:43;101732.41;;;28.81;35.15
5812;BME280;2932;52.400;9.558;2023-05-29T12:54:14;101739.22;;;29.32;35.34
5812;BME280;2932;52.400;9.558;2023-05-29T12:56:40;101739.47;;;28.76;34.94
5812;BME280;2932;52.400;9.558;2023-05-29T12:59:09;101725.66;;;28.59;35.95
5812;BME280;2932;52.400;9.558;2023-05-29T13:01:36;101730.38;;;28.65;35.21
5812;BME280;2932;52.400;9.558;2023-05-29T13:04:05;101718.16;;;28.81;34.22
5812;BME280;2932;52.400;9.558;2023-05-29T13:06:34;101724.50;;;28.88;33.93
5812;BME280;2932;52.400;9.558;2023-05-29T13:09:00;101724.22;;;29.15;34.13
5812;BME280;2932;52.400;9.558;2023-05-29T13:11:26;101716.97;;;29.27;32.89
5812;BME280;2932;52.400;9.558;2023-05-29T13:13:51;101722.91;;;29.33;32.62
5812;BME280;2932;52.400;9.558;2023-05-29T13:16:17;101724.94;;;29.77;32.38
5812;BME280;2932;52.400;9.558;2023-05-29T13:18:43;101712.56;;;29.10;32.00
5812;BME280;2932;52.400;9.558;2023-05-29T13:21:08;101715.31;;;29.13;32.09
5812;BME280;2932;52.400;9.558;2023-05-29T13:23:34;101728.16;;;29.05;32.58
5812;BME280;2932;52.400;9.558;2023-05-29T13:25:59;101722.72;;;28.95;32.27
5812;BME280;2932;52.400;9.558;2023-05-29T13:28:24;101720.94;;;29.17;32.09
5812;BME280;2932;52.400;9.558;2023-05-29T13:30:50;101731.44;;;28.87;31.87
5812;BME280;2932;52.400;9.558;2023-05-29T13:33:15;101734.91;;;28.63;31.79
5812;BME280;2932;52.400;9.558;2023-05-29T13:35:40;101732.69;;;28.70;32.35
5812;BME280;2932;52.400;9.558;2023-05-29T13:38:06;101738.03;;;29.01;31.91
5812;BME280;2932;52.400;9.558;2023-05-29T13:40:31;101730.66;;;29.03;31.89
5812;BME280;2932;52.400;9.558;2023-05-29T13:42:57;101731.19;;;29.14;31.62